createdAt,value
2023-03-30T00:00:20.235Z,17.67
2023-03-30T00:02:50.804Z,17.65
2023-03-30T00:05:18.646Z,19.80
2023-03-30T00:07:45.994Z,18.30
2023-03-30T00:10:17.743Z,19.00
2023-03-30T00:12:47.204Z,18.63
2023-03-30T00:15:16.604Z,19.75
2023-03-30T00:17:43.940Z,18.48
2023-03-30T00:20:11.992Z,21.48
2023-03-30T00:22:40.127Z,21.45
2023-03-30T00:25:08.955Z,19.77
2023-03-30T00:27:38.851Z,20.63
2023-03-30T00:30:07.311Z,20.92
2023-03-30T00:32:37.052Z,22.23
2023-03-30T00:35:05.374Z,20.55
2023-03-30T00:37:32.437Z,20.23
2023-03-30T00:39:58.987Z,20.50
2023-03-30T00:42:25.651Z,21.30
2023-03-30T00:44:57.954Z,19.95
2023-03-30T00:47:25.349Z,19.95
2023-03-30T00:49:53.325Z,20.77
2023-03-30T00:52:24.965Z,20.80
2023-03-30T00:54:55.910Z,19.73
2023-03-30T00:57:24.820Z,21.08
2023-03-30T00:59:53.469Z,21.75
2023-03-30T01:02:21.695Z,22.58
2023-03-30T01:04:51.402Z,21.35
2023-03-30T01:07:18.754Z,21.67
2023-03-30T01:09:45.733Z,21.27
2023-03-30T01:12:12.389Z,19.65
2023-03-30T01:14:39.159Z,22.80
2023-03-30T01:17:55.165Z,21.85
2023-03-30T01:20:41.421Z,22.98
2023-03-30T01:23:18.749Z,22.63
2023-03-30T01:26:00.533Z,22.02
2023-03-30T01:28:35.867Z,23.08
2023-03-30T01:31:41.896Z,23.48
2023-03-30T01:34:32.659Z,22.25
2023-03-30T01:37:33.732Z,24.73
2023-03-30T01:40:13.661Z,24.85
2023-03-30T01:42:49.104Z,21.95
2023-03-30T01:45:33.860Z,22.83
2023-03-30T01:48:33.229Z,23.75
2023-03-30T01:51:05.777Z,23.17
2023-03-30T01:53:42.628Z,22.60
2023-03-30T01:56:30.347Z,23.85
2023-03-30T01:59:04.126Z,21.70
2023-03-30T02:01:33.811Z,20.63
2023-03-30T02:04:02.158Z,21.52
2023-03-30T02:06:40.805Z,20.52
2023-03-30T02:09:11.340Z,19.60
2023-03-30T02:11:41.714Z,20.40
2023-03-30T02:14:10.894Z,21.50
2023-03-30T02:16:48.645Z,20.83
2023-03-30T02:19:15.711Z,21.70
2023-03-30T02:21:43.237Z,21.00
2023-03-30T02:24:17.915Z,20.50
2023-03-30T02:26:49.302Z,19.50
2023-03-30T02:29:16.675Z,20.77
2023-03-30T02:31:49.725Z,21.52
2023-03-30T02:34:52.041Z,20.10
2023-03-30T02:37:47.065Z,21.27
2023-03-30T02:40:17.177Z,22.77
2023-03-30T02:43:12.130Z,22.83
2023-03-30T02:46:03.037Z,22.65
2023-03-30T02:49:04.993Z,23.40
2023-03-30T02:51:34.759Z,22.73
2023-03-30T02:54:10.511Z,23.80
2023-03-30T02:56:56.593Z,23.73
2023-03-30T02:59:30.765Z,21.98
2023-03-30T03:02:12.192Z,21.55
2023-03-30T03:04:43.637Z,22.40
2023-03-30T03:07:13.159Z,23.20
2023-03-30T03:09:40.111Z,20.80
2023-03-30T03:12:07.179Z,21.50
2023-03-30T03:14:33.933Z,21.77
2023-03-30T03:17:00.533Z,21.23
2023-03-30T03:19:27.129Z,21.83
2023-03-30T03:21:53.666Z,20.88
2023-03-30T03:24:20.238Z,21.65
2023-03-30T03:26:46.782Z,22.92
2023-03-30T03:29:13.597Z,23.35
2023-03-30T03:31:40.230Z,21.70
2023-03-30T03:34:06.945Z,21.40
2023-03-30T03:36:33.827Z,23.23
2023-03-30T03:39:00.583Z,22.42
2023-03-30T03:41:27.153Z,23.52
2023-03-30T03:43:53.754Z,21.73
2023-03-30T03:46:20.587Z,21.58
2023-03-30T03:48:47.157Z,21.08
2023-03-30T03:51:14.330Z,20.88
2023-03-30T03:53:40.882Z,21.05
2023-03-30T03:56:08.222Z,20.67
2023-03-30T03:58:34.777Z,20.83
2023-03-30T04:01:03.263Z,23.05
2023-03-30T04:03:30.602Z,20.88
2023-03-30T04:06:01.133Z,21.08
2023-03-30T04:08:28.849Z,21.13
2023-03-30T04:10:55.682Z,21.88
2023-03-30T04:13:22.300Z,20.33
2023-03-30T04:15:49.037Z,20.27
2023-03-30T04:18:15.812Z,20.13
2023-03-30T04:20:42.378Z,20.98
2023-03-30T04:23:09.841Z,20.85
2023-03-30T04:25:36.544Z,21.52
2023-03-30T04:28:05.173Z,22.92
2023-03-30T04:30:32.808Z,21.88
2023-03-30T04:33:05.197Z,21.40
2023-03-30T04:35:32.915Z,23.65
2023-03-30T04:38:00.571Z,21.92
2023-03-30T04:40:27.326Z,22.48
2023-03-30T04:42:54.799Z,22.35
2023-03-30T04:45:21.633Z,22.33
2023-03-30T04:47:48.272Z,22.17
2023-03-30T04:50:15.706Z,19.50
2023-03-30T04:52:42.322Z,20.02
2023-03-30T04:55:09.980Z,21.15
2023-03-30T04:57:36.724Z,21.30
2023-03-30T05:00:07.667Z,23.05
2023-03-30T05:02:34.517Z,30.25
2023-03-30T05:05:01.386Z,27.27
2023-03-30T05:07:28.127Z,23.90
2023-03-30T05:09:54.674Z,22.27
2023-03-30T05:12:21.587Z,25.23
2023-03-30T05:14:48.169Z,25.73
2023-03-30T05:17:14.816Z,32.10
2023-03-30T05:19:41.378Z,23.90
2023-03-30T05:22:07.928Z,24.65
2023-03-30T05:24:34.520Z,23.25
2023-03-30T05:27:02.413Z,20.80
2023-03-30T05:29:29.066Z,21.10
2023-03-30T05:31:55.835Z,21.23
2023-03-30T05:34:22.402Z,21.95
2023-03-30T05:36:48.962Z,22.35
2023-03-30T05:39:15.638Z,23.50
2023-03-30T05:41:42.162Z,22.25
2023-03-30T05:44:08.685Z,22.85
2023-03-30T05:46:35.307Z,24.60
2023-03-30T05:49:01.948Z,23.10
2023-03-30T05:51:28.524Z,24.85
2023-03-30T05:53:55.077Z,25.17
2023-03-30T05:56:23.582Z,24.80
2023-03-30T05:58:50.362Z,24.30
2023-03-30T06:01:17.141Z,25.95
2023-03-30T06:03:43.884Z,26.25
2023-03-30T06:06:10.991Z,25.38
2023-03-30T06:08:37.652Z,25.30
2023-03-30T06:11:05.289Z,25.83
2023-03-30T06:13:32.270Z,25.85
2023-03-30T06:16:00.241Z,27.38
2023-03-30T06:18:28.964Z,27.65
2023-03-30T06:20:55.577Z,28.35
2023-03-30T06:23:23.025Z,27.30
2023-03-30T06:25:53.159Z,26.48
2023-03-30T06:28:20.557Z,26.48
2023-03-30T06:30:49.147Z,27.25
2023-03-30T06:33:16.770Z,25.92
2023-03-30T06:35:51.515Z,26.27
2023-03-30T06:38:19.543Z,26.05
2023-03-30T06:40:46.118Z,25.42
2023-03-30T06:43:21.777Z,26.23
2023-03-30T06:45:52.714Z,24.83
2023-03-30T06:48:22.486Z,24.48
2023-03-30T06:50:49.216Z,23.95
2023-03-30T06:53:16.211Z,24.65
2023-03-30T06:55:42.919Z,23.50
2023-03-30T06:58:10.069Z,24.27
2023-03-30T07:00:36.885Z,22.33
2023-03-30T07:03:04.192Z,23.83
2023-03-30T07:05:31.270Z,23.15
2023-03-30T07:07:58.349Z,24.60
2023-03-30T07:10:25.780Z,22.90
2023-03-30T07:12:52.581Z,22.70
2023-03-30T07:15:19.305Z,23.38
2023-03-30T07:17:45.848Z,22.90
2023-03-30T07:20:16.100Z,22.77
2023-03-30T07:22:43.147Z,22.50
2023-03-30T07:25:10.224Z,23.05
2023-03-30T07:27:38.136Z,22.75
2023-03-30T07:30:17.914Z,23.65
2023-03-30T07:32:50.454Z,21.90
2023-03-30T07:35:17.403Z,23.63
2023-03-30T07:37:44.135Z,20.48
2023-03-30T07:40:11.943Z,23.67
2023-03-30T07:42:38.608Z,23.70
2023-03-30T07:45:06.408Z,24.13
2023-03-30T07:47:33.149Z,24.58
2023-03-30T07:49:59.739Z,23.67
2023-03-30T07:52:26.441Z,24.83
2023-03-30T07:54:54.762Z,24.08
2023-03-30T07:57:22.291Z,25.52
2023-03-30T07:59:49.272Z,26.63
2023-03-30T08:02:16.784Z,26.98
2023-03-30T08:04:44.639Z,27.23
2023-03-30T08:07:12.579Z,25.92
2023-03-30T08:09:39.204Z,28.45
2023-03-30T08:12:07.433Z,28.08
2023-03-30T08:14:33.990Z,27.23
2023-03-30T08:17:00.744Z,27.65
2023-03-30T08:19:28.579Z,27.95
2023-03-30T08:21:57.016Z,28.10
2023-03-30T08:24:23.729Z,26.10
2023-03-30T08:26:50.836Z,27.25
2023-03-30T08:29:18.858Z,25.20
2023-03-30T08:31:45.691Z,26.15
2023-03-30T08:34:12.440Z,27.17
2023-03-30T08:36:39.510Z,26.30
2023-03-30T08:39:06.352Z,24.23
2023-03-30T08:41:49.936Z,25.35
2023-03-30T08:44:38.840Z,27.58
2023-03-30T08:47:13.539Z,26.92
2023-03-30T08:49:59.522Z,27.88
2023-03-30T08:52:26.771Z,28.03
2023-03-30T08:54:54.882Z,27.23
2023-03-30T08:57:32.617Z,27.70
2023-03-30T09:00:21.061Z,28.88
2023-03-30T09:02:55.476Z,27.60
2023-03-30T09:05:29.792Z,27.75
2023-03-30T09:08:17.997Z,27.38
2023-03-30T09:11:07.116Z,30.40
2023-03-30T09:13:37.824Z,28.52
2023-03-30T09:16:18.949Z,28.10
2023-03-30T09:18:52.266Z,29.40
2023-03-30T09:21:23.026Z,28.38
2023-03-30T09:23:50.961Z,30.23
2023-03-30T09:26:29.605Z,31.83
2023-03-30T09:29:00.251Z,30.17
2023-03-30T09:31:40.802Z,31.08
2023-03-30T09:34:26.196Z,31.83
2023-03-30T09:37:05.946Z,31.67
2023-03-30T09:39:36.349Z,33.40
2023-03-30T09:42:02.842Z,33.22
2023-03-30T09:44:39.048Z,35.58
2023-03-30T09:47:29.680Z,35.45
2023-03-30T09:50:21.091Z,35.00
2023-03-30T09:53:03.497Z,34.38
2023-03-30T09:55:32.560Z,34.53
2023-03-30T09:58:11.588Z,37.47
2023-03-30T10:00:39.327Z,39.67
2023-03-30T10:03:07.428Z,41.03
2023-03-30T10:05:36.478Z,40.65
2023-03-30T10:08:19.537Z,39.47
2023-03-30T10:10:46.271Z,38.65
2023-03-30T10:13:15.631Z,39.13
2023-03-30T10:15:46.146Z,36.47
2023-03-30T10:18:24.894Z,32.40
2023-03-30T10:21:02.751Z,29.77
2023-03-30T10:23:43.256Z,28.77
2023-03-30T10:26:21.684Z,30.52
2023-03-30T10:28:57.346Z,29.02
2023-03-30T10:31:28.202Z,27.25
2023-03-30T10:33:58.171Z,25.00
2023-03-30T10:36:30.733Z,26.60
2023-03-30T10:39:08.526Z,28.63
2023-03-30T10:41:37.057Z,29.33
2023-03-30T10:44:19.579Z,29.63
2023-03-30T10:46:48.470Z,32.05
2023-03-30T10:49:31.206Z,34.72
2023-03-30T10:51:57.755Z,35.67
2023-03-30T10:54:47.248Z,34.88
2023-03-30T10:57:19.439Z,34.00
2023-03-30T10:59:46.510Z,34.75
2023-03-30T11:02:34.198Z,35.20
2023-03-30T11:05:25.950Z,35.67
2023-03-30T11:07:55.414Z,34.03
2023-03-30T11:10:31.550Z,35.47
2023-03-30T11:13:05.784Z,34.72
2023-03-30T11:15:47.566Z,30.15
2023-03-30T11:18:17.747Z,27.63
2023-03-30T11:21:06.685Z,27.85
2023-03-30T11:23:59.944Z,26.30
2023-03-30T11:26:39.252Z,25.58
2023-03-30T11:29:15.592Z,25.83
2023-03-30T11:34:37.261Z,36.13
2023-03-30T11:37:16.193Z,29.92
2023-03-30T11:39:51.886Z,29.55
2023-03-30T11:42:27.088Z,26.95
2023-03-30T11:44:53.963Z,24.70
2023-03-30T11:47:58.647Z,25.80
2023-03-30T11:51:01.863Z,24.05
2023-03-30T11:53:41.504Z,22.90
2023-03-30T11:56:14.265Z,22.35
2023-03-30T11:59:18.390Z,20.67
2023-03-30T12:01:54.059Z,19.35
2023-03-30T12:04:28.536Z,21.05
2023-03-30T12:07:00.996Z,20.50
2023-03-30T12:09:33.186Z,21.80
2023-03-30T12:12:07.846Z,25.40
2023-03-30T12:14:37.015Z,27.30
2023-03-30T12:17:17.241Z,23.50
2023-03-30T12:19:56.445Z,22.65
2023-03-30T12:22:32.553Z,23.85
2023-03-30T12:25:03.736Z,22.45
2023-03-30T12:27:35.620Z,22.20
2023-03-30T12:30:27.329Z,21.63
2023-03-30T12:33:03.554Z,26.65
2023-03-30T12:38:46.180Z,27.00
2023-03-30T12:41:20.621Z,28.05
2023-03-30T12:44:04.394Z,29.00
2023-03-30T12:46:54.127Z,26.00
2023-03-30T12:49:29.694Z,24.33
2023-03-30T12:52:27.188Z,20.95
2023-03-30T12:55:02.691Z,26.40
2023-03-30T12:57:51.109Z,28.10
2023-03-30T13:00:23.732Z,24.08
2023-03-30T13:03:15.354Z,24.70
2023-03-30T13:05:44.068Z,24.65
2023-03-30T13:08:25.861Z,23.20
2023-03-30T13:11:09.264Z,20.92
2023-03-30T13:13:53.066Z,22.13
2023-03-30T13:16:50.645Z,20.77
2023-03-30T13:19:24.698Z,19.20
2023-03-30T13:22:12.428Z,20.00
2023-03-30T13:24:43.521Z,18.17
2023-03-30T13:27:14.340Z,18.00
2023-03-30T13:30:11.490Z,17.45
2023-03-30T13:32:59.856Z,16.75
2023-03-30T13:35:44.917Z,16.63
2023-03-30T13:39:04.116Z,18.65
2023-03-30T13:42:02.651Z,18.83
2023-03-30T13:44:51.815Z,19.70
2023-03-30T13:47:39.474Z,19.00
2023-03-30T13:50:20.503Z,18.45
2023-03-30T13:52:49.027Z,16.55
2023-03-30T13:55:49.055Z,15.75
2023-03-30T13:58:15.554Z,16.17
2023-03-30T14:00:50.213Z,15.68
2023-03-30T14:03:27.409Z,15.57
2023-03-30T14:06:02.743Z,14.88
2023-03-30T14:08:36.728Z,15.45
2023-03-30T14:11:15.319Z,14.70
2023-03-30T14:13:43.427Z,15.77
2023-03-30T14:16:13.673Z,13.15
2023-03-30T14:18:40.352Z,13.43
2023-03-30T14:21:15.659Z,11.55
2023-03-30T14:23:50.201Z,9.47
2023-03-30T14:26:18.189Z,8.25
2023-03-30T14:28:46.898Z,6.47
2023-03-30T14:31:19.876Z,7.28
2023-03-30T14:33:47.133Z,5.15
2023-03-30T14:36:16.843Z,5.10
2023-03-30T14:38:47.198Z,4.20
2023-03-30T14:41:28.004Z,2.88
2023-03-30T14:44:00.878Z,2.85
2023-03-30T14:46:37.870Z,3.08
2023-03-30T14:49:05.149Z,3.10
2023-03-30T14:51:41.836Z,3.28
2023-03-30T14:54:21.561Z,3.45
2023-03-30T14:56:58.927Z,3.33
2023-03-30T14:59:27.397Z,3.42
2023-03-30T15:01:55.781Z,3.45
2023-03-30T15:04:31.987Z,3.95
2023-03-30T15:06:58.834Z,4.05
2023-03-30T15:09:26.127Z,4.40
2023-03-30T15:12:00.751Z,4.68
2023-03-30T15:14:34.061Z,5.28
2023-03-30T15:17:10.986Z,4.22
2023-03-30T15:19:38.201Z,4.50
2023-03-30T15:22:22.174Z,3.35
2023-03-30T15:24:48.820Z,3.92
2023-03-30T15:27:17.030Z,4.28
2023-03-30T15:29:44.950Z,3.13
2023-03-30T15:32:16.101Z,3.22
2023-03-30T15:35:20.699Z,3.58
2023-03-30T15:37:53.638Z,3.20
2023-03-30T15:40:35.200Z,2.85
2023-03-30T15:43:21.743Z,3.40
2023-03-30T15:45:54.683Z,3.10
2023-03-30T15:48:28.850Z,3.60
2023-03-30T15:51:04.085Z,2.92
2023-03-30T15:53:40.225Z,3.37
2023-03-30T15:56:12.766Z,3.47
2023-03-30T15:58:39.935Z,2.97
2023-03-30T16:01:09.401Z,3.58
2023-03-30T16:03:40.715Z,3.05
2023-03-30T16:06:12.760Z,2.75
2023-03-30T16:08:43.516Z,3.00
2023-03-30T16:11:11.406Z,3.22
2023-03-30T16:13:43.370Z,2.88
2023-03-30T16:16:11.134Z,4.28
2023-03-30T16:18:38.005Z,2.88
2023-03-30T16:21:05.416Z,4.40
2023-03-30T16:23:32.202Z,4.10
2023-03-30T16:25:58.824Z,3.25
2023-03-30T16:28:26.173Z,3.00
2023-03-30T16:30:55.615Z,3.10
2023-03-30T16:33:22.238Z,3.67
2023-03-30T16:35:48.958Z,3.65
2023-03-30T16:38:17.817Z,2.88
2023-03-30T16:40:46.168Z,3.42
2023-03-30T16:43:12.876Z,3.45
2023-03-30T16:45:39.718Z,3.17
2023-03-30T16:48:06.424Z,3.45
2023-03-30T16:50:47.190Z,3.15
2023-03-30T16:53:13.958Z,3.25
2023-03-30T16:55:41.046Z,3.10
2023-03-30T16:58:09.758Z,3.70
2023-03-30T17:00:40.873Z,3.50
2023-03-30T17:03:08.070Z,3.55
2023-03-30T17:05:34.948Z,3.67
2023-03-30T17:08:07.886Z,3.38
2023-03-30T17:10:39.611Z,6.30
2023-03-30T17:13:06.764Z,4.55
2023-03-30T17:15:35.218Z,3.65
2023-03-30T17:18:02.056Z,3.60
2023-03-30T17:20:37.291Z,3.72
2023-03-30T17:23:04.824Z,3.60
2023-03-30T17:25:31.511Z,3.38
2023-03-30T17:27:58.492Z,3.22
2023-03-30T17:30:30.490Z,3.05
2023-03-30T17:32:57.278Z,3.00
2023-03-30T17:35:26.179Z,2.97
2023-03-30T17:37:55.526Z,2.53
2023-03-30T17:40:30.831Z,2.78
2023-03-30T17:42:57.573Z,2.67
2023-03-30T17:45:26.637Z,3.20
2023-03-30T17:47:53.668Z,2.47
2023-03-30T17:50:27.441Z,2.67
2023-03-30T17:52:56.327Z,2.60
2023-03-30T17:55:26.624Z,2.08
2023-03-30T17:57:54.295Z,1.95
2023-03-30T18:00:25.739Z,2.38
2023-03-30T18:02:53.276Z,2.33
2023-03-30T18:05:22.208Z,2.60
2023-03-30T18:07:49.521Z,2.67
2023-03-30T18:10:32.813Z,2.65
2023-03-30T18:12:59.421Z,1.90
2023-03-30T18:15:28.005Z,2.40
2023-03-30T18:17:55.878Z,2.15
2023-03-30T18:20:36.131Z,2.08
2023-03-30T18:23:02.934Z,2.80
2023-03-30T18:25:32.639Z,2.72
2023-03-30T18:28:00.955Z,2.80
2023-03-30T18:30:40.218Z,2.40
2023-03-30T18:33:07.104Z,2.90
2023-03-30T18:35:35.894Z,2.08
2023-03-30T18:38:04.072Z,2.88
2023-03-30T18:40:37.164Z,2.50
2023-03-30T18:43:05.322Z,2.40
2023-03-30T18:45:41.100Z,2.22
2023-03-30T18:48:11.775Z,3.20
2023-03-30T18:50:39.448Z,3.03
2023-03-30T18:53:08.358Z,3.38
2023-03-30T18:55:40.418Z,2.80
2023-03-30T18:58:14.320Z,2.92
2023-03-30T19:00:41.145Z,3.08
2023-03-30T19:03:08.049Z,2.53
2023-03-30T19:05:35.251Z,3.05
2023-03-30T19:08:02.106Z,3.75
2023-03-30T19:10:31.397Z,3.40
2023-03-30T19:12:58.367Z,3.35
2023-03-30T19:15:29.572Z,3.35
2023-03-30T19:17:56.433Z,3.72
2023-03-30T19:20:25.149Z,3.60
2023-03-30T19:22:51.787Z,2.90
2023-03-30T19:25:20.589Z,3.42
2023-03-30T19:28:01.749Z,2.47
2023-03-30T19:30:32.282Z,2.53
2023-03-30T19:33:00.923Z,1.60
2023-03-30T19:35:28.718Z,1.92
2023-03-30T19:37:56.120Z,1.60
2023-03-30T19:40:23.701Z,1.80
2023-03-30T19:42:50.864Z,1.75
2023-03-30T19:45:22.915Z,1.77
2023-03-30T19:47:50.425Z,1.38
2023-03-30T19:50:18.953Z,1.50
2023-03-30T19:52:48.662Z,1.20
2023-03-30T19:55:16.317Z,1.35
2023-03-30T19:57:43.147Z,1.35
2023-03-30T20:00:15.709Z,1.15
2023-03-30T20:02:48.417Z,1.60
2023-03-30T20:05:15.874Z,0.95
2023-03-30T20:07:44.428Z,1.60
2023-03-30T20:10:14.333Z,1.65
2023-03-30T20:12:41.021Z,1.67
2023-03-30T20:15:09.574Z,1.75
2023-03-30T20:17:38.243Z,2.03
2023-03-30T20:20:08.620Z,2.65
2023-03-30T20:22:36.845Z,2.38
2023-03-30T20:25:06.515Z,3.13
2023-03-30T20:27:36.349Z,2.50
2023-03-30T20:30:06.383Z,2.35
2023-03-30T20:32:33.981Z,3.45
2023-03-30T20:35:00.663Z,2.92
2023-03-30T20:37:27.322Z,5.70
2023-03-30T20:39:54.057Z,1.77
2023-03-30T20:42:26.152Z,1.20
2023-03-30T20:44:53.575Z,1.65
2023-03-30T20:47:23.388Z,1.45
2023-03-30T20:49:50.173Z,1.48
2023-03-30T20:52:17.060Z,1.40
2023-03-30T20:54:44.743Z,1.38
2023-03-30T20:57:12.358Z,1.45
2023-03-30T20:59:39.649Z,1.73
2023-03-30T21:02:07.027Z,1.52
2023-03-30T21:04:34.066Z,1.50
2023-03-30T21:07:00.960Z,1.58
2023-03-30T21:09:27.896Z,1.60
2023-03-30T21:11:54.745Z,1.92
2023-03-30T21:14:21.604Z,1.75
2023-03-30T21:16:48.272Z,1.63
2023-03-30T21:19:14.928Z,1.92
2023-03-30T21:21:41.568Z,1.58
2023-03-30T21:24:10.685Z,1.27
2023-03-30T21:26:37.995Z,2.00
2023-03-30T21:29:05.614Z,1.77
2023-03-30T21:31:32.420Z,1.80
2023-03-30T21:33:59.534Z,2.45
2023-03-30T21:36:26.304Z,1.98
2023-03-30T21:38:53.025Z,2.28
2023-03-30T21:41:21.379Z,2.20
2023-03-30T21:43:48.219Z,2.78
2023-03-30T21:46:17.592Z,2.65
2023-03-30T21:48:45.900Z,2.75
2023-03-30T21:51:18.137Z,2.78
2023-03-30T21:53:48.251Z,2.80
2023-03-30T21:56:15.745Z,2.67
2023-03-30T21:58:42.578Z,2.40
2023-03-30T22:01:12.781Z,2.20
2023-03-30T22:03:42.005Z,2.85
2023-03-30T22:06:10.974Z,3.22
2023-03-30T22:08:37.567Z,3.55
2023-03-30T22:11:07.418Z,2.67
2023-03-30T22:13:34.149Z,2.72
2023-03-30T22:16:22.570Z,2.40
2023-03-30T22:18:51.519Z,2.78
2023-03-30T22:21:21.513Z,2.40
2023-03-30T22:23:48.168Z,2.45
2023-03-30T22:26:15.566Z,2.42
2023-03-30T22:28:43.336Z,2.63
2023-03-30T22:31:12.645Z,2.22
2023-03-30T22:33:39.484Z,2.60
2023-03-30T22:36:14.968Z,2.47
2023-03-30T22:38:42.506Z,2.28
2023-03-30T22:41:10.251Z,2.25
2023-03-30T22:43:37.297Z,2.72
2023-03-30T22:46:05.628Z,2.28
2023-03-30T22:48:32.922Z,2.70
2023-03-30T22:51:08.264Z,2.40
2023-03-30T22:53:35.400Z,2.97
2023-03-30T22:56:01.971Z,2.65
2023-03-30T22:58:28.516Z,2.70
2023-03-30T23:01:02.559Z,3.40
2023-03-30T23:03:29.520Z,2.97
2023-03-30T23:06:00.752Z,2.53
2023-03-30T23:08:30.758Z,2.47
2023-03-30T23:11:04.070Z,2.80
2023-03-30T23:13:37.347Z,2.85
2023-03-30T23:16:06.608Z,3.15
2023-03-30T23:18:34.556Z,2.47
2023-03-30T23:21:06.005Z,3.25
2023-03-30T23:23:34.299Z,3.15
2023-03-30T23:26:02.965Z,3.25
2023-03-30T23:28:32.457Z,3.03
2023-03-30T23:30:59.075Z,2.72
2023-03-30T23:33:25.713Z,2.78
2023-03-30T23:35:53.297Z,2.40
2023-03-30T23:38:20.108Z,4.00
2023-03-30T23:40:46.837Z,3.05
2023-03-30T23:43:13.445Z,2.63
2023-03-30T23:45:42.580Z,2.95
2023-03-30T23:48:09.108Z,2.55
2023-03-30T23:50:36.966Z,2.63
2023-03-30T23:53:03.705Z,2.85
2023-03-30T23:55:30.335Z,2.67
2023-03-30T23:57:56.896Z,3.05
